Terminal Aerodrome Forecast
Issued by NWS

Home | Current Version | Previous Version | Text Only | Print | Product List | Glossary On
Versions: 1 2 3 4 5 6 7 8 9 10 11 12
761
FTUS44 KBMX 041122
TAFTOI
TAF
KTOI 041122Z 0412/0512 09008KT 6SM -RA BR OVC025
     FM041600 08011KT 4SM -RA BR OVC015
     FM041900 09006KT 4SM -RA BR OVC007
     FM050000 05003KT 2SM BR OVC004=

USA.gov is the U.S. government's official web portal to all federal, state and local government web resources and services.